createdAt,value
2019-03-11T00:00:37.590Z,1.23
2019-03-11T00:03:07.224Z,1.27
2019-03-11T00:05:36.680Z,1.20
2019-03-11T00:08:06.525Z,1.20
2019-03-11T00:10:35.990Z,1.40
2019-03-11T00:13:05.543Z,1.13
2019-03-11T00:15:35.046Z,1.27
2019-03-11T00:18:04.583Z,1.50
2019-03-11T00:20:34.050Z,1.10
2019-03-11T00:23:03.563Z,1.30
2019-03-11T00:25:33.017Z,1.30
2019-03-11T00:28:02.507Z,1.57
2019-03-11T00:30:32.010Z,1.97
2019-03-11T00:33:01.477Z,1.73
2019-03-11T00:35:31.020Z,1.17
2019-03-11T00:38:00.512Z,1.20
2019-03-11T00:40:29.967Z,1.07
2019-03-11T00:42:59.451Z,1.20
2019-03-11T00:45:28.953Z,1.00
2019-03-11T00:48:02.344Z,1.07
2019-03-11T00:50:29.642Z,0.93
2019-03-11T00:52:59.119Z,1.20
2019-03-11T00:55:28.595Z,1.20
2019-03-11T00:57:58.052Z,0.90
2019-03-11T01:00:37.424Z,0.97
2019-03-11T01:03:07.018Z,1.00
2019-03-11T01:05:36.497Z,1.00
2019-03-11T01:08:06.329Z,1.00
2019-03-11T01:10:35.870Z,0.80
2019-03-11T01:13:05.546Z,1.20
2019-03-11T01:15:35.042Z,1.37
2019-03-11T01:18:04.500Z,1.10
2019-03-11T01:20:34.075Z,1.00
2019-03-11T01:23:03.552Z,0.83
2019-03-11T01:25:33.044Z,0.80
2019-03-11T01:28:02.502Z,0.90
2019-03-11T01:30:32.017Z,0.90
2019-03-11T01:33:01.489Z,0.70
2019-03-11T01:35:30.962Z,0.70
2019-03-11T01:38:00.501Z,0.90
2019-03-11T01:40:29.997Z,0.70
2019-03-11T01:42:59.456Z,0.83
2019-03-11T01:45:28.964Z,0.90
2019-03-11T01:47:58.431Z,0.87
2019-03-11T01:50:27.994Z,0.73
2019-03-11T01:52:57.455Z,0.97
2019-03-11T01:55:26.953Z,0.83
2019-03-11T01:57:56.413Z,0.80
2019-03-11T02:00:25.869Z,0.80
2019-03-11T02:02:55.370Z,0.93
2019-03-11T02:05:24.842Z,0.70
2019-03-11T02:07:54.334Z,0.70
2019-03-11T02:10:23.828Z,0.63
2019-03-11T02:12:53.300Z,0.90
2019-03-11T02:15:22.785Z,0.60
2019-03-11T02:17:52.245Z,0.60
2019-03-11T02:20:21.737Z,0.80
2019-03-11T02:22:51.207Z,0.77
2019-03-11T02:25:20.751Z,0.60
2019-03-11T02:27:50.235Z,1.00
2019-03-11T02:30:19.788Z,0.50
2019-03-11T02:32:49.342Z,0.80
2019-03-11T02:35:33.799Z,0.80
2019-03-11T02:38:03.308Z,0.50
2019-03-11T02:40:32.790Z,0.70
2019-03-11T02:43:02.314Z,0.70
2019-03-11T02:45:31.905Z,0.60
2019-03-11T02:48:01.358Z,0.70
2019-03-11T02:50:30.989Z,0.60
2019-03-11T02:53:00.450Z,0.70
2019-03-11T02:55:29.937Z,0.70
2019-03-11T02:57:59.434Z,0.77
2019-03-11T03:00:28.892Z,0.80
2019-03-11T03:03:02.732Z,0.70
2019-03-11T03:05:42.590Z,1.10
2019-03-11T03:08:12.042Z,0.93
2019-03-11T03:10:41.522Z,1.33
2019-03-11T03:13:11.055Z,0.80
2019-03-11T03:15:40.547Z,0.77
2019-03-11T03:18:10.099Z,0.80
2019-03-11T03:20:39.621Z,0.90
2019-03-11T03:23:09.144Z,0.70
2019-03-11T03:25:38.634Z,0.80
2019-03-11T03:28:08.199Z,0.80
2019-03-11T03:30:37.959Z,0.97
2019-03-11T03:33:07.481Z,0.97
2019-03-11T03:35:36.993Z,0.90
2019-03-11T03:38:06.529Z,1.20
2019-03-11T03:40:36.024Z,1.23
2019-03-11T03:43:05.841Z,1.20
2019-03-11T03:45:39.461Z,0.87
2019-03-11T03:48:08.883Z,0.70
2019-03-11T03:50:40.299Z,0.87
2019-03-11T03:53:10.114Z,0.87
2019-03-11T03:55:39.678Z,1.07
2019-03-11T03:58:09.169Z,1.00
2019-03-11T04:00:38.722Z,0.90
2019-03-11T04:03:08.288Z,1.03
2019-03-11T04:05:37.760Z,1.10
2019-03-11T04:08:07.215Z,1.00
2019-03-11T04:10:36.716Z,0.90
2019-03-11T04:13:06.276Z,0.73
2019-03-11T04:15:35.721Z,0.70
2019-03-11T04:18:09.059Z,0.80
2019-03-11T04:20:38.869Z,0.90
2019-03-11T04:23:08.358Z,0.80
2019-03-11T04:25:38.005Z,0.87
2019-03-11T04:28:07.603Z,1.17
2019-03-11T04:30:37.109Z,0.70
2019-03-11T04:33:06.582Z,0.70
2019-03-11T04:35:36.128Z,1.00
2019-03-11T04:38:05.576Z,0.80
2019-03-11T04:40:35.077Z,0.80
2019-03-11T04:43:04.663Z,0.67
2019-03-11T04:45:34.127Z,0.80
2019-03-11T04:48:03.635Z,1.00
2019-03-11T04:50:33.205Z,0.70
2019-03-11T04:53:02.707Z,0.80
2019-03-11T04:55:32.159Z,1.10
2019-03-11T04:58:01.720Z,0.73
2019-03-11T05:00:32.824Z,0.87
2019-03-11T05:03:02.418Z,0.90
2019-03-11T05:05:32.047Z,1.00
2019-03-11T05:08:01.581Z,1.17
2019-03-11T05:10:31.074Z,0.90
2019-03-11T05:13:00.606Z,0.80
2019-03-11T05:15:30.053Z,1.07
2019-03-11T05:17:59.502Z,0.90
2019-03-11T05:20:28.962Z,1.10
2019-03-11T05:22:58.535Z,1.13
2019-03-11T05:25:27.997Z,1.00
2019-03-11T05:27:57.492Z,1.07
2019-03-11T05:30:27.080Z,1.00
2019-03-11T05:32:56.562Z,0.80
2019-03-11T05:35:26.169Z,0.83
2019-03-11T05:37:55.656Z,0.90
2019-03-11T05:40:25.281Z,1.10
2019-03-11T05:42:54.738Z,1.00
2019-03-11T05:45:24.266Z,0.90
2019-03-11T05:47:53.769Z,0.63
2019-03-11T05:50:23.226Z,1.20
2019-03-11T05:52:52.793Z,0.83
2019-03-11T05:55:22.299Z,0.90
2019-03-11T05:57:51.839Z,1.00
2019-03-11T06:00:24.103Z,0.60
2019-03-11T06:02:53.567Z,0.83
2019-03-11T06:05:23.121Z,1.10
2019-03-11T06:07:52.619Z,0.80
2019-03-11T06:10:22.178Z,0.70
2019-03-11T06:12:51.818Z,0.63
2019-03-11T06:15:21.316Z,0.90
2019-03-11T06:17:50.841Z,0.87
2019-03-11T06:20:32.327Z,0.70
2019-03-11T06:23:03.511Z,0.70
2019-03-11T06:25:32.989Z,1.20
2019-03-11T06:28:03.051Z,1.10
2019-03-11T06:30:32.983Z,1.10
2019-03-11T06:33:02.486Z,1.60
2019-03-11T06:35:32.021Z,1.40
2019-03-11T06:38:01.565Z,2.20
2019-03-11T06:40:31.195Z,1.40
2019-03-11T06:43:00.679Z,1.50
2019-03-11T06:45:30.132Z,1.53
2019-03-11T06:47:59.632Z,1.67
2019-03-11T06:50:29.168Z,1.90
2019-03-11T06:52:58.680Z,1.57
2019-03-11T06:55:28.171Z,1.90
2019-03-11T06:57:57.671Z,2.10
2019-03-11T07:00:27.201Z,1.67
2019-03-11T07:02:56.707Z,1.60
2019-03-11T07:05:26.211Z,1.20
2019-03-11T07:07:55.751Z,1.43
2019-03-11T07:10:25.249Z,1.40
2019-03-11T07:12:54.695Z,1.50
2019-03-11T07:15:24.375Z,1.40
2019-03-11T07:17:53.900Z,1.30
2019-03-11T07:20:23.384Z,1.57
2019-03-11T07:22:52.885Z,1.80
2019-03-11T07:25:22.424Z,1.40
2019-03-11T07:27:51.915Z,1.53
2019-03-11T07:30:21.733Z,1.50
2019-03-11T07:32:51.240Z,1.50
2019-03-11T07:35:20.709Z,1.40
2019-03-11T07:37:50.266Z,1.27
2019-03-11T07:40:29.307Z,1.50
2019-03-11T07:42:51.156Z,2.00
2019-03-11T07:45:20.652Z,1.50
2019-03-11T07:47:50.214Z,1.83
2019-03-11T07:50:19.807Z,1.60
2019-03-11T07:52:49.293Z,1.37
2019-03-11T07:55:18.879Z,1.47
2019-03-11T07:57:48.421Z,1.40
2019-03-11T08:00:19.973Z,1.57
2019-03-11T08:02:49.576Z,1.10
2019-03-11T08:05:19.141Z,1.20
2019-03-11T08:07:48.639Z,2.07
2019-03-11T08:10:25.947Z,1.90
2019-03-11T08:12:55.520Z,1.20
2019-03-11T08:15:24.996Z,1.23
2019-03-11T08:17:54.485Z,1.40
2019-03-11T08:20:24.060Z,1.40
2019-03-11T08:22:53.606Z,1.50
2019-03-11T08:25:23.097Z,1.73
2019-03-11T08:27:52.591Z,1.40
2019-03-11T08:30:23.695Z,1.10
2019-03-11T08:32:53.180Z,1.40
2019-03-11T08:35:22.771Z,1.17
2019-03-11T08:37:52.219Z,1.30
2019-03-11T08:40:22.515Z,1.20
2019-03-11T08:42:52.007Z,1.20
2019-03-11T08:45:21.549Z,1.33
2019-03-11T08:47:51.013Z,1.50
2019-03-11T08:50:20.569Z,1.67
2019-03-11T08:52:50.050Z,2.00
2019-03-11T08:55:19.572Z,1.70
2019-03-11T08:57:49.062Z,1.63
2019-03-11T09:00:22.275Z,1.80
2019-03-11T09:02:51.904Z,1.40
2019-03-11T09:05:21.501Z,1.87
2019-03-11T09:07:51.065Z,2.27
2019-03-11T09:10:20.894Z,2.10
2019-03-11T09:12:50.421Z,2.07
2019-03-11T09:15:22.281Z,2.10
2019-03-11T09:17:51.763Z,2.03
2019-03-11T09:20:21.300Z,2.60
2019-03-11T09:22:50.869Z,2.40
2019-03-11T09:25:28.555Z,2.07
2019-03-11T09:27:58.067Z,2.43
2019-03-11T09:30:27.673Z,2.03
2019-03-11T09:32:57.241Z,2.20
2019-03-11T09:35:26.784Z,1.73
2019-03-11T09:37:56.287Z,1.67
2019-03-11T09:40:25.822Z,2.47
2019-03-11T09:42:55.296Z,2.50
2019-03-11T09:45:25.038Z,2.03
2019-03-11T09:47:54.739Z,1.90
2019-03-11T09:50:24.308Z,1.73
2019-03-11T09:52:53.825Z,1.67
2019-03-11T09:55:27.124Z,1.67
2019-03-11T09:57:56.599Z,1.70
2019-03-11T10:00:29.827Z,1.70
2019-03-11T10:02:59.345Z,1.67
2019-03-11T10:05:28.954Z,2.00
2019-03-11T10:07:58.448Z,1.80
2019-03-11T10:10:30.039Z,1.80
2019-03-11T10:12:59.646Z,1.50
2019-03-11T10:15:29.157Z,2.10
2019-03-11T10:17:58.650Z,1.80
2019-03-11T10:20:28.178Z,2.20
2019-03-11T10:22:57.681Z,1.87
2019-03-11T10:25:27.178Z,2.00
2019-03-11T10:27:56.786Z,2.00
2019-03-11T10:30:26.411Z,2.67
2019-03-11T10:32:55.955Z,2.10
2019-03-11T10:35:33.120Z,2.10
2019-03-11T10:37:56.709Z,2.20
2019-03-11T10:40:33.217Z,1.90
2019-03-11T10:43:02.670Z,1.63
2019-03-11T10:45:32.483Z,1.67
2019-03-11T10:48:02.164Z,1.73
2019-03-11T10:50:31.663Z,1.77
2019-03-11T10:53:01.209Z,1.70
2019-03-11T10:55:30.801Z,1.60
2019-03-11T10:58:00.345Z,1.47
2019-03-11T11:00:32.930Z,1.30
2019-03-11T11:03:02.615Z,1.10
2019-03-11T11:05:32.260Z,1.23
2019-03-11T11:08:01.908Z,1.20
2019-03-11T11:10:31.400Z,1.10
2019-03-11T11:13:00.971Z,1.20
2019-03-11T11:15:32.239Z,1.30
2019-03-11T11:18:01.807Z,1.30
2019-03-11T11:20:31.395Z,1.60
2019-03-11T11:23:00.880Z,1.17
2019-03-11T11:25:31.488Z,1.17
2019-03-11T11:28:01.050Z,1.00
2019-03-11T11:30:33.508Z,1.10
2019-03-11T11:33:03.064Z,0.93
2019-03-11T11:35:32.558Z,1.00
2019-03-11T11:38:02.079Z,1.20
2019-03-11T11:40:32.233Z,1.40
2019-03-11T11:43:01.708Z,1.37
2019-03-11T11:45:33.355Z,1.47
2019-03-11T11:48:02.900Z,1.53
2019-03-11T11:50:32.523Z,1.50
2019-03-11T11:53:02.178Z,1.40
2019-03-11T11:55:31.679Z,1.33
2019-03-11T11:58:01.142Z,1.20
2019-03-11T12:00:34.234Z,1.33
2019-03-11T12:03:03.767Z,1.40
2019-03-11T12:05:33.477Z,1.37
2019-03-11T12:08:03.049Z,1.00
2019-03-11T12:10:33.849Z,1.17
2019-03-11T12:13:03.405Z,1.40
2019-03-11T12:15:33.016Z,1.67
2019-03-11T12:18:02.477Z,1.20
2019-03-11T12:20:32.605Z,1.30
2019-03-11T12:23:02.062Z,1.13
2019-03-11T12:25:31.621Z,1.27
2019-03-11T12:28:01.193Z,1.60
2019-03-11T12:30:34.917Z,0.93
2019-03-11T12:33:04.476Z,1.50
2019-03-11T12:35:34.183Z,1.10
2019-03-11T12:38:03.774Z,1.60
2019-03-11T12:40:33.342Z,1.20
2019-03-11T12:43:02.822Z,1.20
2019-03-11T12:45:32.319Z,1.20
2019-03-11T12:48:01.826Z,1.37
2019-03-11T12:50:33.171Z,1.20
2019-03-11T12:53:02.637Z,1.10
2019-03-11T12:55:32.160Z,1.20
2019-03-11T12:58:01.764Z,0.97
2019-03-11T13:00:31.255Z,1.93
2019-03-11T13:03:00.765Z,1.13
2019-03-11T13:05:30.237Z,0.83
2019-03-11T13:07:59.723Z,1.30
2019-03-11T13:10:31.841Z,1.20
2019-03-11T13:13:01.426Z,1.00
2019-03-11T13:15:30.996Z,1.50
2019-03-11T13:18:27.464Z,1.13
2019-03-11T13:20:56.953Z,1.13
2019-03-11T13:23:26.416Z,1.13
2019-03-11T13:25:56.071Z,1.47
2019-03-11T13:28:25.612Z,1.07
2019-03-11T13:30:55.149Z,1.00
2019-03-11T13:33:24.920Z,1.00
2019-03-11T13:35:56.640Z,0.90
2019-03-11T13:38:25.775Z,1.00
2019-03-11T13:40:55.331Z,1.00
2019-03-11T13:43:24.815Z,0.90
2019-03-11T13:45:54.313Z,1.10
2019-03-11T13:48:23.861Z,1.00
2019-03-11T13:50:53.360Z,0.90
2019-03-11T13:53:22.989Z,0.87
2019-03-11T13:55:52.459Z,1.00
2019-03-11T13:58:21.965Z,0.87
2019-03-11T14:00:56.871Z,0.90
2019-03-11T14:03:22.716Z,1.13
2019-03-11T14:05:52.193Z,1.03
2019-03-11T14:08:21.709Z,1.17
2019-03-11T14:10:51.217Z,1.10
2019-03-11T14:13:20.683Z,1.30
2019-03-11T14:15:50.236Z,1.10
2019-03-11T14:18:19.812Z,0.93
2019-03-11T14:20:49.324Z,0.80
2019-03-11T14:23:18.872Z,1.10
2019-03-11T14:25:48.369Z,1.10
2019-03-11T14:28:17.973Z,1.00
2019-03-11T14:30:47.537Z,1.10
2019-03-11T14:33:17.222Z,0.87
2019-03-11T14:35:46.973Z,1.43
2019-03-11T14:38:16.537Z,0.93
2019-03-11T14:40:46.106Z,0.90
2019-03-11T14:43:15.581Z,1.07
2019-03-11T14:45:45.065Z,0.97
2019-03-11T14:48:14.650Z,1.00
2019-03-11T14:50:44.153Z,1.17
2019-03-11T14:53:13.626Z,1.20
2019-03-11T14:55:43.201Z,1.20
2019-03-11T14:58:12.698Z,1.57
2019-03-11T15:00:42.283Z,1.10
2019-03-11T15:03:11.818Z,0.97
2019-03-11T15:05:41.404Z,1.67
2019-03-11T15:08:12.734Z,1.20
2019-03-11T15:10:42.102Z,1.10
2019-03-11T15:13:11.631Z,1.20
2019-03-11T15:15:41.146Z,1.13
2019-03-11T15:18:10.691Z,1.47
2019-03-11T15:20:40.337Z,1.20
2019-03-11T15:23:19.962Z,1.20
2019-03-11T15:25:41.350Z,1.77
2019-03-11T15:28:10.873Z,1.10
2019-03-11T15:30:40.412Z,1.70
2019-03-11T15:33:10.079Z,0.90
2019-03-11T15:35:39.675Z,1.23
2019-03-11T15:38:09.149Z,1.10
2019-03-11T15:40:38.675Z,1.10
2019-03-11T15:43:08.181Z,1.40
2019-03-11T15:45:38.975Z,0.80
2019-03-11T15:48:08.904Z,1.10
2019-03-11T15:50:38.687Z,0.90
2019-03-11T15:53:08.198Z,1.27
2019-03-11T15:55:37.737Z,1.00
2019-03-11T15:58:07.307Z,1.13
2019-03-11T16:00:36.948Z,1.13
2019-03-11T16:03:06.451Z,0.90
2019-03-11T16:05:36.122Z,1.30
2019-03-11T16:08:05.687Z,0.87
2019-03-11T16:10:35.297Z,1.30
2019-03-11T16:13:04.881Z,1.10
2019-03-11T16:15:34.538Z,1.00
2019-03-11T16:18:04.119Z,0.90
2019-03-11T16:20:33.711Z,1.03
2019-03-11T16:23:03.249Z,1.00
2019-03-11T16:25:32.831Z,1.00
2019-03-11T16:28:02.441Z,1.20
2019-03-11T16:30:32.026Z,1.20
2019-03-11T16:33:01.784Z,2.87
2019-03-11T16:35:31.376Z,1.20
2019-03-11T16:38:00.927Z,1.20
2019-03-11T16:40:30.390Z,1.03
2019-03-11T16:43:00.851Z,1.00
2019-03-11T16:45:30.538Z,1.60
2019-03-11T16:48:00.113Z,1.03
2019-03-11T16:50:29.605Z,1.20
2019-03-11T16:52:59.082Z,1.17
2019-03-11T16:55:39.157Z,1.10
2019-03-11T16:58:08.631Z,1.10
2019-03-11T17:00:51.810Z,1.20
2019-03-11T17:03:21.427Z,1.17
2019-03-11T17:05:51.044Z,1.03
2019-03-11T17:08:20.685Z,1.00
2019-03-11T17:10:50.161Z,1.20
2019-03-11T17:13:19.686Z,0.70
2019-03-11T17:15:49.272Z,1.20
2019-03-11T17:18:18.764Z,0.83
2019-03-11T17:20:48.349Z,1.10
2019-03-11T17:23:17.862Z,1.07
2019-03-11T17:25:47.374Z,1.57
2019-03-11T17:28:17.040Z,1.20
2019-03-11T17:30:46.585Z,1.20
2019-03-11T17:33:16.068Z,2.40
2019-03-11T17:35:45.750Z,1.60
2019-03-11T17:38:15.225Z,1.50
2019-03-11T17:40:44.685Z,1.10
2019-03-11T17:43:14.181Z,1.10
2019-03-11T17:45:43.696Z,1.10
2019-03-11T17:48:13.167Z,1.13
2019-03-11T17:50:42.727Z,1.10
2019-03-11T17:53:19.933Z,1.20
2019-03-11T17:55:43.655Z,1.10
2019-03-11T17:58:13.307Z,1.73
2019-03-11T18:00:54.822Z,1.10
2019-03-11T18:03:15.875Z,1.00
2019-03-11T18:05:45.472Z,1.00
2019-03-11T18:08:15.017Z,1.20
2019-03-11T18:10:44.643Z,1.30
2019-03-11T18:13:14.170Z,1.20
2019-03-11T18:15:43.645Z,1.10
2019-03-11T18:18:13.357Z,1.03
2019-03-11T18:20:42.839Z,1.03
2019-03-11T18:23:12.355Z,1.10
2019-03-11T18:25:41.890Z,1.27
2019-03-11T18:28:11.461Z,1.20
2019-03-11T18:30:41.004Z,1.40
2019-03-11T18:33:10.550Z,1.07
2019-03-11T18:35:40.090Z,1.33
2019-03-11T18:38:09.649Z,1.00
2019-03-11T18:40:39.117Z,1.23
2019-03-11T18:43:19.868Z,1.63
2019-03-11T18:45:39.934Z,1.17
2019-03-11T18:48:09.530Z,1.23
2019-03-11T18:50:39.192Z,1.30
2019-03-11T18:53:08.802Z,1.30
2019-03-11T18:55:38.358Z,1.10
2019-03-11T18:58:07.928Z,1.33
2019-03-11T19:00:37.846Z,1.20
2019-03-11T19:03:07.413Z,1.20
2019-03-11T19:05:36.883Z,1.10
2019-03-11T19:08:06.450Z,1.27
2019-03-11T19:10:35.923Z,1.00
2019-03-11T19:13:05.515Z,1.43
2019-03-11T19:15:35.120Z,1.40
2019-03-11T19:18:04.709Z,1.07
2019-03-11T19:20:34.353Z,1.20
2019-03-11T19:23:04.032Z,1.07
2019-03-11T19:25:33.681Z,1.40
2019-03-11T19:28:03.275Z,1.10
2019-03-11T19:30:32.798Z,1.30
2019-03-11T19:33:02.296Z,1.20
2019-03-11T19:35:31.859Z,0.80
2019-03-11T19:38:01.419Z,1.33
2019-03-11T19:40:30.883Z,1.33
2019-03-11T19:43:00.381Z,1.10
2019-03-11T19:45:29.912Z,1.00
2019-03-11T19:47:59.458Z,1.27
2019-03-11T19:50:29.034Z,1.20
2019-03-11T19:52:59.607Z,1.07
2019-03-11T19:55:29.382Z,1.27
2019-03-11T19:57:58.928Z,1.43
2019-03-11T20:00:28.613Z,1.00
2019-03-11T20:02:58.109Z,1.10
2019-03-11T20:05:30.378Z,1.40
2019-03-11T20:08:00.066Z,1.70
2019-03-11T20:10:29.791Z,1.10
2019-03-11T20:12:59.400Z,1.20
2019-03-11T20:15:28.991Z,1.37
2019-03-11T20:17:58.612Z,1.00
2019-03-11T20:20:28.219Z,1.77
2019-03-11T20:22:57.699Z,1.00
2019-03-11T20:25:30.814Z,1.50
2019-03-11T20:28:00.470Z,1.30
2019-03-11T20:30:30.141Z,1.20
2019-03-11T20:32:59.803Z,1.50
2019-03-11T20:35:29.466Z,1.20
2019-03-11T20:37:59.015Z,0.93
2019-03-11T20:40:28.545Z,1.03
2019-03-11T20:42:58.073Z,1.30
2019-03-11T20:45:27.589Z,1.10
2019-03-11T20:47:57.136Z,1.20
2019-03-11T20:50:26.728Z,1.67
2019-03-11T20:52:56.359Z,1.20
2019-03-11T20:55:25.943Z,1.50
2019-03-11T20:57:55.419Z,1.23
2019-03-11T21:00:28.939Z,1.30
2019-03-11T21:03:00.075Z,1.57
2019-03-11T21:05:40.011Z,1.10
2019-03-11T21:08:09.714Z,1.20
2019-03-11T21:10:39.223Z,1.10
2019-03-11T21:13:08.931Z,1.17
2019-03-11T21:15:38.536Z,1.30
2019-03-11T21:18:08.021Z,1.67
2019-03-11T21:20:37.567Z,1.40
2019-03-11T21:23:07.360Z,1.17
2019-03-11T21:25:37.009Z,1.33
2019-03-11T21:28:06.563Z,1.50
2019-03-11T21:30:36.179Z,1.33
2019-03-11T21:33:05.891Z,1.13
2019-03-11T21:35:35.435Z,1.20
2019-03-11T21:38:05.114Z,1.10
2019-03-11T21:40:34.630Z,1.03
2019-03-11T21:43:04.092Z,1.20
2019-03-11T21:45:34.807Z,1.03
2019-03-11T21:48:04.734Z,1.27
2019-03-11T21:50:34.238Z,1.30
2019-03-11T21:53:03.823Z,1.20
2019-03-11T21:55:33.298Z,1.80
2019-03-11T21:58:12.605Z,1.10
2019-03-11T22:00:35.198Z,1.30
2019-03-11T22:03:05.223Z,1.33
2019-03-11T22:05:34.727Z,1.27
2019-03-11T22:08:04.257Z,1.10
2019-03-11T22:10:33.764Z,0.90
2019-03-11T22:13:03.284Z,1.03
2019-03-11T22:15:32.835Z,1.27
2019-03-11T22:18:02.314Z,1.10
2019-03-11T22:20:31.832Z,1.10
2019-03-11T22:23:01.329Z,1.30
2019-03-11T22:25:30.803Z,1.37
2019-03-11T22:28:00.390Z,1.27
2019-03-11T22:30:29.856Z,1.00
2019-03-11T22:32:59.349Z,1.13
2019-03-11T22:35:29.276Z,1.00
2019-03-11T22:37:59.181Z,1.37
2019-03-11T22:40:28.652Z,1.13
2019-03-11T22:42:58.128Z,1.30
2019-03-11T22:45:27.651Z,1.43
2019-03-11T22:47:57.213Z,1.20
2019-03-11T22:50:26.676Z,1.60
2019-03-11T22:52:56.152Z,1.10
2019-03-11T22:55:25.603Z,1.23
2019-03-11T22:57:55.106Z,1.23
2019-03-11T23:00:41.805Z,0.93
2019-03-11T23:03:12.030Z,1.00
2019-03-11T23:05:57.149Z,1.40
2019-03-11T23:08:12.856Z,1.30
2019-03-11T23:10:42.329Z,1.27
2019-03-11T23:13:11.811Z,1.33
2019-03-11T23:15:41.291Z,1.10
2019-03-11T23:18:10.944Z,1.40
2019-03-11T23:20:40.514Z,1.10
2019-03-11T23:23:10.129Z,1.10
2019-03-11T23:25:39.698Z,0.90
2019-03-11T23:28:09.319Z,1.30
2019-03-11T23:30:38.964Z,1.13
2019-03-11T23:33:08.421Z,1.10
2019-03-11T23:35:37.919Z,1.00
2019-03-11T23:38:07.416Z,0.80
2019-03-11T23:40:36.920Z,1.33
2019-03-11T23:43:06.531Z,1.00
2019-03-11T23:45:36.081Z,0.97
2019-03-11T23:48:05.711Z,0.97
2019-03-11T23:50:35.247Z,0.80
2019-03-11T23:53:04.782Z,0.87
2019-03-11T23:55:34.278Z,1.20
2019-03-11T23:58:03.741Z,1.00
